sensor_id;sensor_type;location;lat;lon;timestamp;pressure;altitude;pressure_sealevel;temperature;humidity
79138;BME280;68544;45.566;10.238;2023-04-15T00:01:19;98601.38;;;12.46;44.01
79138;BME280;68544;45.566;10.238;2023-04-15T00:03:45;98606.31;;;12.49;44.04
79138;BME280;68544;45.566;10.238;2023-04-15T00:06:11;98603.09;;;12.41;44.32
79138;BME280;68544;45.566;10.238;2023-04-15T00:08:37;98602.53;;;12.27;44.85
79138;BME280;68544;45.566;10.238;2023-04-15T00:11:03;98605.59;;;12.42;44.84
79138;BME280;68544;45.566;10.238;2023-04-15T00:13:30;98602.16;;;12.35;44.95
79138;BME280;68544;45.566;10.238;2023-04-15T00:15:56;98602.66;;;12.32;44.95
79138;BME280;68544;45.566;10.238;2023-04-15T00:18:23;98608.75;;;12.39;44.69
79138;BME280;68544;45.566;10.238;2023-04-15T00:20:48;98600.66;;;12.28;45.28
79138;BME280;68544;45.566;10.238;2023-04-15T00:23:13;98574.66;;;11.97;45.88
79138;BME280;68544;45.566;10.238;2023-04-15T00:25:39;98591.94;;;12.37;45.28
79138;BME280;68544;45.566;10.238;2023-04-15T00:28:04;98584.97;;;12.18;45.53
79138;BME280;68544;45.566;10.238;2023-04-15T00:30:29;98602.72;;;12.14;45.45
79138;BME280;68544;45.566;10.238;2023-04-15T00:32:55;98590.47;;;12.12;45.60
79138;BME280;68544;45.566;10.238;2023-04-15T00:35:20;98584.28;;;11.81;45.72
79138;BME280;68544;45.566;10.238;2023-04-15T00:37:46;98594.00;;;12.12;45.11
79138;BME280;68544;45.566;10.238;2023-04-15T00:40:12;98580.38;;;12.07;44.96
79138;BME280;68544;45.566;10.238;2023-04-15T00:42:38;98588.06;;;11.92;45.67
79138;BME280;68544;45.566;10.238;2023-04-15T00:45:03;98586.41;;;11.91;46.03
79138;BME280;68544;45.566;10.238;2023-04-15T00:47:30;98573.75;;;12.03;45.84
79138;BME280;68544;45.566;10.238;2023-04-15T00:49:57;98575.19;;;11.76;46.82
79138;BME280;68544;45.566;10.238;2023-04-15T00:52:23;98568.06;;;11.93;46.01
79138;BME280;68544;45.566;10.238;2023-04-15T00:54:48;98570.53;;;11.83;46.55
79138;BME280;68544;45.566;10.238;2023-04-15T00:57:15;98576.34;;;11.98;46.12
79138;BME280;68544;45.566;10.238;2023-04-15T00:59:40;98570.28;;;11.84;46.14
79138;BME280;68544;45.566;10.238;2023-04-15T01:02:06;98582.50;;;11.57;46.76
79138;BME280;68544;45.566;10.238;2023-04-15T01:04:32;98579.81;;;11.39;47.07
79138;BME280;68544;45.566;10.238;2023-04-15T01:06:57;98580.88;;;11.38;47.12
79138;BME280;68544;45.566;10.238;2023-04-15T01:09:23;98579.16;;;11.44;47.34
79138;BME280;68544;45.566;10.238;2023-04-15T01:11:48;98577.31;;;11.56;47.34
79138;BME280;68544;45.566;10.238;2023-04-15T01:14:14;98585.59;;;11.43;47.50
79138;BME280;68544;45.566;10.238;2023-04-15T01:16:39;98584.34;;;11.57;46.86
79138;BME280;68544;45.566;10.238;2023-04-15T01:19:09;98581.69;;;11.39;46.62
79138;BME280;68544;45.566;10.238;2023-04-15T01:21:38;98585.16;;;11.09;47.75
79138;BME280;68544;45.566;10.238;2023-04-15T01:24:08;98585.75;;;11.11;47.80
79138;BME280;68544;45.566;10.238;2023-04-15T01:26:38;98587.72;;;11.23;47.10
79138;BME280;68544;45.566;10.238;2023-04-15T01:29:03;98585.31;;;11.33;46.47
79138;BME280;68544;45.566;10.238;2023-04-15T01:31:28;98584.44;;;11.21;46.71
79138;BME280;68544;45.566;10.238;2023-04-15T01:33:54;98574.88;;;11.36;46.39
79138;BME280;68544;45.566;10.238;2023-04-15T01:36:19;98580.88;;;11.38;46.65
79138;BME280;68544;45.566;10.238;2023-04-15T01:38:44;98577.56;;;11.36;48.09
79138;BME280;68544;45.566;10.238;2023-04-15T01:41:10;98584.34;;;11.27;47.22
79138;BME280;68544;45.566;10.238;2023-04-15T01:43:35;98563.88;;;11.49;46.87
79138;BME280;68544;45.566;10.238;2023-04-15T01:46:04;98573.16;;;11.42;49.18
79138;BME280;68544;45.566;10.238;2023-04-15T01:48:30;98580.50;;;10.98;51.42
79138;BME280;68544;45.566;10.238;2023-04-15T01:50:57;98587.28;;;10.89;50.62
79138;BME280;68544;45.566;10.238;2023-04-15T01:53:23;98576.91;;;11.23;47.63
79138;BME280;68544;45.566;10.238;2023-04-15T01:55:49;98581.13;;;11.19;47.34
79138;BME280;68544;45.566;10.238;2023-04-15T01:58:15;98577.34;;;11.20;47.21
79138;BME280;68544;45.566;10.238;2023-04-15T02:00:41;98584.63;;;11.19;46.89
79138;BME280;68544;45.566;10.238;2023-04-15T02:03:06;98589.34;;;11.24;47.36
79138;BME280;68544;45.566;10.238;2023-04-15T02:05:32;98596.72;;;10.98;50.13
79138;BME280;68544;45.566;10.238;2023-04-15T02:07:58;98583.75;;;11.25;49.23
79138;BME280;68544;45.566;10.238;2023-04-15T02:10:23;98592.00;;;11.12;49.69
79138;BME280;68544;45.566;10.238;2023-04-15T02:12:48;98591.84;;;11.25;50.01
79138;BME280;68544;45.566;10.238;2023-04-15T02:15:14;98595.16;;;11.27;48.52
79138;BME280;68544;45.566;10.238;2023-04-15T02:17:39;98596.44;;;11.25;48.46
79138;BME280;68544;45.566;10.238;2023-04-15T02:20:05;98602.03;;;11.23;48.44
79138;BME280;68544;45.566;10.238;2023-04-15T02:22:31;98604.38;;;11.20;49.69
79138;BME280;68544;45.566;10.238;2023-04-15T02:24:56;98599.44;;;11.17;50.65
79138;BME280;68544;45.566;10.238;2023-04-15T02:27:22;98602.09;;;10.80;52.25
79138;BME280;68544;45.566;10.238;2023-04-15T02:29:47;98596.53;;;10.75;52.84
79138;BME280;68544;45.566;10.238;2023-04-15T02:32:15;98591.19;;;10.93;52.05
79138;BME280;68544;45.566;10.238;2023-04-15T02:34:40;98585.47;;;11.01;51.20
79138;BME280;68544;45.566;10.238;2023-04-15T02:37:09;98593.03;;;11.11;51.03
79138;BME280;68544;45.566;10.238;2023-04-15T02:39:35;98599.13;;;11.06;51.58
79138;BME280;68544;45.566;10.238;2023-04-15T02:42:01;98597.91;;;11.02;51.54
79138;BME280;68544;45.566;10.238;2023-04-15T02:44:27;98598.44;;;10.93;51.94
79138;BME280;68544;45.566;10.238;2023-04-15T02:46:53;98593.94;;;10.87;52.46
79138;BME280;68544;45.566;10.238;2023-04-15T02:49:21;98593.53;;;10.83;52.37
79138;BME280;68544;45.566;10.238;2023-04-15T02:51:47;98597.84;;;11.27;51.04
79138;BME280;68544;45.566;10.238;2023-04-15T02:54:16;98598.34;;;10.81;52.86
79138;BME280;68544;45.566;10.238;2023-04-15T02:56:42;98597.06;;;10.84;52.85
79138;BME280;68544;45.566;10.238;2023-04-15T02:59:07;98603.09;;;11.04;51.91
79138;BME280;68544;45.566;10.238;2023-04-15T03:01:33;98596.41;;;10.88;51.76
79138;BME280;68544;45.566;10.238;2023-04-15T03:03:58;98599.72;;;10.90;52.37
79138;BME280;68544;45.566;10.238;2023-04-15T03:06:23;98602.00;;;10.69;52.74
79138;BME280;68544;45.566;10.238;2023-04-15T03:08:49;98601.34;;;10.73;52.77
79138;BME280;68544;45.566;10.238;2023-04-15T03:11:14;98596.53;;;10.75;52.91
79138;BME280;68544;45.566;10.238;2023-04-15T03:13:41;98607.53;;;10.56;54.08
79138;BME280;68544;45.566;10.238;2023-04-15T03:16:10;98606.84;;;10.60;53.59
79138;BME280;68544;45.566;10.238;2023-04-15T03:18:35;98602.16;;;10.74;52.72
79138;BME280;68544;45.566;10.238;2023-04-15T03:21:01;98608.53;;;10.79;52.77
79138;BME280;68544;45.566;10.238;2023-04-15T03:23:27;98604.28;;;10.47;53.92
79138;BME280;68544;45.566;10.238;2023-04-15T03:25:52;98615.47;;;10.51;54.03
79138;BME280;68544;45.566;10.238;2023-04-15T03:28:20;98624.22;;;10.46;54.54
79138;BME280;68544;45.566;10.238;2023-04-15T03:30:45;98619.75;;;10.58;54.00
79138;BME280;68544;45.566;10.238;2023-04-15T03:33:10;98626.56;;;10.61;54.19
79138;BME280;68544;45.566;10.238;2023-04-15T03:35:36;98627.75;;;10.47;54.71
79138;BME280;68544;45.566;10.238;2023-04-15T03:38:01;98627.00;;;10.33;55.49
79138;BME280;68544;45.566;10.238;2023-04-15T03:40:27;98627.78;;;10.40;54.88
79138;BME280;68544;45.566;10.238;2023-04-15T03:42:52;98630.81;;;10.50;54.49
79138;BME280;68544;45.566;10.238;2023-04-15T03:45:17;98628.94;;;10.26;54.96
79138;BME280;68544;45.566;10.238;2023-04-15T03:47:43;98626.47;;;10.49;53.50
79138;BME280;68544;45.566;10.238;2023-04-15T03:50:08;98631.13;;;10.60;53.38
79138;BME280;68544;45.566;10.238;2023-04-15T03:52:34;98635.59;;;10.73;52.96
79138;BME280;68544;45.566;10.238;2023-04-15T03:54:59;98631.03;;;10.73;52.85
79138;BME280;68544;45.566;10.238;2023-04-15T03:57:24;98632.03;;;10.29;54.10
79138;BME280;68544;45.566;10.238;2023-04-15T03:59:50;98640.31;;;10.35;54.19
79138;BME280;68544;45.566;10.238;2023-04-15T04:02:15;98634.75;;;10.23;53.94
79138;BME280;68544;45.566;10.238;2023-04-15T04:04:41;98646.13;;;9.94;54.80
79138;BME280;68544;45.566;10.238;2023-04-15T04:07:07;98649.19;;;10.04;54.62
79138;BME280;68544;45.566;10.238;2023-04-15T04:09:32;98642.16;;;10.34;53.80
79138;BME280;68544;45.566;10.238;2023-04-15T04:11:58;98649.31;;;10.22;54.36
79138;BME280;68544;45.566;10.238;2023-04-15T04:14:23;98654.00;;;9.95;54.93
79138;BME280;68544;45.566;10.238;2023-04-15T04:16:53;98658.47;;;10.08;54.58
79138;BME280;68544;45.566;10.238;2023-04-15T04:19:19;98655.09;;;10.25;53.94
79138;BME280;68544;45.566;10.238;2023-04-15T04:21:44;98662.44;;;10.12;54.57
79138;BME280;68544;45.566;10.238;2023-04-15T04:24:10;98668.50;;;10.01;55.07
79138;BME280;68544;45.566;10.238;2023-04-15T04:26:35;98683.78;;;10.20;53.71
79138;BME280;68544;45.566;10.238;2023-04-15T04:29:01;98671.34;;;10.06;54.04
79138;BME280;68544;45.566;10.238;2023-04-15T04:31:26;98673.91;;;10.01;54.52
79138;BME280;68544;45.566;10.238;2023-04-15T04:33:52;98666.41;;;10.03;53.83
79138;BME280;68544;45.566;10.238;2023-04-15T04:36:17;98667.94;;;9.92;54.71
79138;BME280;68544;45.566;10.238;2023-04-15T04:38:42;98666.75;;;10.19;53.73
79138;BME280;68544;45.566;10.238;2023-04-15T04:41:08;98677.94;;;10.23;53.83
79138;BME280;68544;45.566;10.238;2023-04-15T04:43:33;98679.44;;;10.06;53.40
79138;BME280;68544;45.566;10.238;2023-04-15T04:45:58;98683.81;;;10.07;52.90
79138;BME280;68544;45.566;10.238;2023-04-15T04:48:23;98683.63;;;10.02;53.36
79138;BME280;68544;45.566;10.238;2023-04-15T04:50:50;98688.47;;;9.87;53.92
79138;BME280;68544;45.566;10.238;2023-04-15T04:53:15;98681.41;;;9.92;53.67
79138;BME280;68544;45.566;10.238;2023-04-15T04:55:42;98686.16;;;9.97;53.15
79138;BME280;68544;45.566;10.238;2023-04-15T04:58:07;98688.78;;;10.03;52.48
79138;BME280;68544;45.566;10.238;2023-04-15T05:00:32;98692.94;;;10.06;52.03
79138;BME280;68544;45.566;10.238;2023-04-15T05:02:58;98690.66;;;10.09;51.27
79138;BME280;68544;45.566;10.238;2023-04-15T05:05:23;98689.22;;;10.13;51.81
79138;BME280;68544;45.566;10.238;2023-04-15T05:07:49;98696.63;;;10.18;51.86
79138;BME280;68544;45.566;10.238;2023-04-15T05:10:14;98697.94;;;10.02;51.88
79138;BME280;68544;45.566;10.238;2023-04-15T05:12:41;98696.16;;;10.27;50.83
79138;BME280;68544;45.566;10.238;2023-04-15T05:15:07;98703.69;;;10.19;51.08
79138;BME280;68544;45.566;10.238;2023-04-15T05:17:33;98704.63;;;10.31;50.83
79138;BME280;68544;45.566;10.238;2023-04-15T05:19:59;98706.06;;;9.96;51.88
79138;BME280;68544;45.566;10.238;2023-04-15T05:22:25;98707.91;;;9.95;52.70
79138;BME280;68544;45.566;10.238;2023-04-15T05:24:50;98709.94;;;10.13;52.54
79138;BME280;68544;45.566;10.238;2023-04-15T05:27:15;98712.88;;;10.05;52.53
79138;BME280;68544;45.566;10.238;2023-04-15T05:29:41;98713.56;;;10.31;51.89
79138;BME280;68544;45.566;10.238;2023-04-15T05:32:06;98707.25;;;10.44;50.76
79138;BME280;68544;45.566;10.238;2023-04-15T05:34:32;98711.25;;;10.66;50.46
79138;BME280;68544;45.566;10.238;2023-04-15T05:36:57;98712.94;;;10.85;50.57
79138;BME280;68544;45.566;10.238;2023-04-15T05:39:22;98715.16;;;10.95;50.79
79138;BME280;68544;45.566;10.238;2023-04-15T05:41:48;98711.81;;;10.99;50.93
79138;BME280;68544;45.566;10.238;2023-04-15T05:44:13;98720.84;;;11.11;49.98
79138;BME280;68544;45.566;10.238;2023-04-15T05:46:39;98727.00;;;11.19;49.83
79138;BME280;68544;45.566;10.238;2023-04-15T05:49:04;98723.59;;;11.48;48.55
79138;BME280;68544;45.566;10.238;2023-04-15T05:51:29;98727.03;;;11.55;48.46
79138;BME280;68544;45.566;10.238;2023-04-15T05:53:55;98721.31;;;11.45;47.50
79138;BME280;68544;45.566;10.238;2023-04-15T05:56:20;98730.69;;;11.67;47.36
79138;BME280;68544;45.566;10.238;2023-04-15T05:58:46;98722.09;;;11.52;47.46
79138;BME280;68544;45.566;10.238;2023-04-15T06:01:11;98725.72;;;12.00;46.92
79138;BME280;68544;45.566;10.238;2023-04-15T06:03:36;98721.16;;;12.30;45.98
79138;BME280;68544;45.566;10.238;2023-04-15T06:06:03;98723.03;;;12.30;46.13
79138;BME280;68544;45.566;10.238;2023-04-15T06:08:28;98725.44;;;12.49;45.64
79138;BME280;68544;45.566;10.238;2023-04-15T06:10:53;98722.66;;;12.67;44.95
79138;BME280;68544;45.566;10.238;2023-04-15T06:13:19;98727.63;;;12.41;45.34
79138;BME280;68544;45.566;10.238;2023-04-15T06:15:44;98718.53;;;12.53;45.25
79138;BME280;68544;45.566;10.238;2023-04-15T06:18:10;98727.72;;;12.64;45.11
79138;BME280;68544;45.566;10.238;2023-04-15T06:20:38;98723.31;;;12.93;43.47
79138;BME280;68544;45.566;10.238;2023-04-15T06:23:03;98721.78;;;12.97;43.35
79138;BME280;68544;45.566;10.238;2023-04-15T06:25:31;98730.34;;;12.82;43.10
79138;BME280;68544;45.566;10.238;2023-04-15T06:27:56;98729.81;;;13.15;43.15
79138;BME280;68544;45.566;10.238;2023-04-15T06:30:22;98729.47;;;13.46;41.74
79138;BME280;68544;45.566;10.238;2023-04-15T06:32:47;98734.91;;;13.58;42.22
79138;BME280;68544;45.566;10.238;2023-04-15T06:35:12;98732.78;;;13.60;41.60
79138;BME280;68544;45.566;10.238;2023-04-15T06:37:38;98732.94;;;13.93;41.46
79138;BME280;68544;45.566;10.238;2023-04-15T06:40:04;98710.13;;;13.66;40.98
79138;BME280;68544;45.566;10.238;2023-04-15T06:42:29;98735.97;;;14.08;39.82
79138;BME280;68544;45.566;10.238;2023-04-15T06:44:55;98715.97;;;14.25;39.52
79138;BME280;68544;45.566;10.238;2023-04-15T06:47:20;98715.75;;;14.55;38.98
79138;BME280;68544;45.566;10.238;2023-04-15T06:49:46;98718.06;;;14.63;39.48
79138;BME280;68544;45.566;10.238;2023-04-15T06:52:11;98724.53;;;15.07;38.81
79138;BME280;68544;45.566;10.238;2023-04-15T06:54:37;98722.38;;;15.26;38.13
79138;BME280;68544;45.566;10.238;2023-04-15T06:57:02;98725.25;;;15.36;38.09
79138;BME280;68544;45.566;10.238;2023-04-15T06:59:27;98734.31;;;15.58;38.47
79138;BME280;68544;45.566;10.238;2023-04-15T07:01:53;98723.03;;;15.49;37.33
79138;BME280;68544;45.566;10.238;2023-04-15T07:04:19;98727.25;;;15.78;35.92
79138;BME280;68544;45.566;10.238;2023-04-15T07:06:44;98724.78;;;16.20;35.04
79138;BME280;68544;45.566;10.238;2023-04-15T07:09:10;98727.72;;;16.14;34.72
79138;BME280;68544;45.566;10.238;2023-04-15T07:11:35;98725.34;;;16.01;34.48
79138;BME280;68544;45.566;10.238;2023-04-15T07:14:01;98724.72;;;16.37;33.83
79138;BME280;68544;45.566;10.238;2023-04-15T07:16:26;98720.84;;;16.54;33.20
79138;BME280;68544;45.566;10.238;2023-04-15T07:18:52;98716.47;;;16.53;34.83
79138;BME280;68544;45.566;10.238;2023-04-15T07:21:17;98720.63;;;16.88;34.48
79138;BME280;68544;45.566;10.238;2023-04-15T07:23:43;98718.81;;;16.98;33.13
79138;BME280;68544;45.566;10.238;2023-04-15T07:26:08;98719.72;;;16.77;32.88
79138;BME280;68544;45.566;10.238;2023-04-15T07:28:33;98719.78;;;17.14;31.98
79138;BME280;68544;45.566;10.238;2023-04-15T07:30:59;98715.53;;;17.70;30.65
79138;BME280;68544;45.566;10.238;2023-04-15T07:33:25;98712.34;;;17.88;31.62
79138;BME280;68544;45.566;10.238;2023-04-15T07:35:50;98710.72;;;17.87;30.70
79138;BME280;68544;45.566;10.238;2023-04-15T07:38:15;98707.78;;;18.03;30.40
79138;BME280;68544;45.566;10.238;2023-04-15T07:40:41;98711.09;;;18.15;29.90
79138;BME280;68544;45.566;10.238;2023-04-15T07:43:06;98706.94;;;18.03;30.04
79138;BME280;68544;45.566;10.238;2023-04-15T07:45:32;98705.34;;;18.12;29.80
79138;BME280;68544;45.566;10.238;2023-04-15T07:47:58;98705.00;;;18.65;29.44
79138;BME280;68544;45.566;10.238;2023-04-15T07:50:23;98692.41;;;18.54;28.39
79138;BME280;68544;45.566;10.238;2023-04-15T07:52:49;98696.25;;;18.83;28.39
79138;BME280;68544;45.566;10.238;2023-04-15T07:55:15;98701.72;;;19.29;28.11
79138;BME280;68544;45.566;10.238;2023-04-15T07:57:43;98702.84;;;19.38;27.33
79138;BME280;68544;45.566;10.238;2023-04-15T08:00:09;98708.28;;;19.63;27.15
79138;BME280;68544;45.566;10.238;2023-04-15T08:02:35;98711.53;;;19.75;27.10
79138;BME280;68544;45.566;10.238;2023-04-15T08:05:00;98711.38;;;20.74;25.06
79138;BME280;68544;45.566;10.238;2023-04-15T08:07:27;98719.00;;;21.26;23.52
79138;BME280;68544;45.566;10.238;2023-04-15T08:09:52;98707.16;;;22.07;22.75
79138;BME280;68544;45.566;10.238;2023-04-15T08:12:18;98696.28;;;24.95;19.04
79138;BME280;68544;45.566;10.238;2023-04-15T08:14:43;98695.97;;;30.74;12.46
79138;BME280;68544;45.566;10.238;2023-04-15T08:17:08;98692.22;;;33.44;9.63
79138;BME280;68544;45.566;10.238;2023-04-15T08:19:34;98686.19;;;34.78;8.40
79138;BME280;68544;45.566;10.238;2023-04-15T08:21:59;98683.88;;;36.67;7.39
79138;BME280;68544;45.566;10.238;2023-04-15T08:24:25;98681.56;;;36.83;6.48
79138;BME280;68544;45.566;10.238;2023-04-15T08:26:51;98687.38;;;35.69;7.42
79138;BME280;68544;45.566;10.238;2023-04-15T08:29:17;98693.31;;;38.03;5.57
79138;BME280;68544;45.566;10.238;2023-04-15T08:31:42;98683.16;;;39.22;5.10
79138;BME280;68544;45.566;10.238;2023-04-15T08:34:07;98671.16;;;38.79;5.69
79138;BME280;68544;45.566;10.238;2023-04-15T08:36:33;98678.28;;;37.43;6.02
79138;BME280;68544;45.566;10.238;2023-04-15T08:38:58;98687.16;;;34.37;7.80
79138;BME280;68544;45.566;10.238;2023-04-15T08:41:25;98681.03;;;31.62;10.45
79138;BME280;68544;45.566;10.238;2023-04-15T08:44:00;98686.25;;;30.44;10.93
79138;BME280;68544;45.566;10.238;2023-04-15T08:46:29;98686.94;;;28.65;12.34
79138;BME280;68544;45.566;10.238;2023-04-15T08:48:57;98677.06;;;27.72;13.34
79138;BME280;68544;45.566;10.238;2023-04-15T08:51:22;98676.03;;;26.87;14.95
79138;BME280;68544;45.566;10.238;2023-04-15T08:53:48;98684.44;;;26.00;15.71
79138;BME280;68544;45.566;10.238;2023-04-15T08:56:14;98691.22;;;25.33;16.71
79138;BME280;68544;45.566;10.238;2023-04-15T08:58:42;98678.41;;;26.46;16.06
79138;BME280;68544;45.566;10.238;2023-04-15T09:01:08;98683.31;;;25.70;16.08
79138;BME280;68544;45.566;10.238;2023-04-15T09:03:34;98681.41;;;27.35;14.91
79138;BME280;68544;45.566;10.238;2023-04-15T09:05:59;98675.88;;;33.08;9.62
79138;BME280;68544;45.566;10.238;2023-04-15T09:08:25;98665.97;;;34.16;8.36
79138;BME280;68544;45.566;10.238;2023-04-15T09:10:51;98674.72;;;35.86;7.87
79138;BME280;68544;45.566;10.238;2023-04-15T09:13:17;98670.56;;;36.57;6.63
79138;BME280;68544;45.566;10.238;2023-04-15T09:15:42;98674.16;;;37.22;5.48
79138;BME280;68544;45.566;10.238;2023-04-15T09:18:10;98672.06;;;35.97;7.18
79138;BME280;68544;45.566;10.238;2023-04-15T09:20:40;98671.19;;;38.47;5.69
79138;BME280;68544;45.566;10.238;2023-04-15T09:23:14;98671.44;;;37.51;6.42
79138;BME280;68544;45.566;10.238;2023-04-15T09:25:40;98667.25;;;35.60;8.12
79138;BME280;68544;45.566;10.238;2023-04-15T09:28:09;98665.88;;;35.14;8.41
79138;BME280;68544;45.566;10.238;2023-04-15T09:30:35;98663.47;;;34.60;8.50
79138;BME280;68544;45.566;10.238;2023-04-15T09:33:02;98675.19;;;35.55;8.06
79138;BME280;68544;45.566;10.238;2023-04-15T09:35:32;98660.34;;;36.96;7.24
79138;BME280;68544;45.566;10.238;2023-04-15T09:38:03;98664.06;;;37.14;7.99
79138;BME280;68544;45.566;10.238;2023-04-15T09:40:33;98666.69;;;37.69;6.83
79138;BME280;68544;45.566;10.238;2023-04-15T09:42:59;98661.44;;;38.94;6.52
79138;BME280;68544;45.566;10.238;2023-04-15T09:45:26;98660.06;;;39.41;6.33
79138;BME280;68544;45.566;10.238;2023-04-15T09:47:52;98663.78;;;39.24;6.15
79138;BME280;68544;45.566;10.238;2023-04-15T09:50:20;98663.91;;;37.90;6.76
79138;BME280;68544;45.566;10.238;2023-04-15T09:52:46;98670.34;;;38.01;6.80
79138;BME280;68544;45.566;10.238;2023-04-15T09:55:13;98660.31;;;38.25;6.65
79138;BME280;68544;45.566;10.238;2023-04-15T09:57:38;98651.41;;;38.79;6.24
79138;BME280;68544;45.566;10.238;2023-04-15T10:00:07;98648.06;;;36.64;7.42
79138;BME280;68544;45.566;10.238;2023-04-15T10:02:33;98645.88;;;34.37;9.59
79138;BME280;68544;45.566;10.238;2023-04-15T10:05:00;98642.81;;;33.74;10.02
79138;BME280;68544;45.566;10.238;2023-04-15T10:07:26;98640.34;;;32.93;10.62
79138;BME280;68544;45.566;10.238;2023-04-15T10:09:51;98644.06;;;32.12;11.30
79138;BME280;68544;45.566;10.238;2023-04-15T10:12:18;98640.53;;;33.19;10.74
79138;BME280;68544;45.566;10.238;2023-04-15T10:14:44;98648.13;;;33.18;9.92
79138;BME280;68544;45.566;10.238;2023-04-15T10:17:11;98650.16;;;32.83;10.73
79138;BME280;68544;45.566;10.238;2023-04-15T10:19:37;98639.19;;;33.96;10.55
79138;BME280;68544;45.566;10.238;2023-04-15T10:22:03;98639.78;;;34.84;9.60
79138;BME280;68544;45.566;10.238;2023-04-15T10:24:32;98636.75;;;37.29;8.36
79138;BME280;68544;45.566;10.238;2023-04-15T10:26:59;98641.03;;;36.95;7.86
79138;BME280;68544;45.566;10.238;2023-04-15T10:29:25;98631.97;;;37.37;7.52
79138;BME280;68544;45.566;10.238;2023-04-15T10:31:54;98624.03;;;37.81;6.90
79138;BME280;68544;45.566;10.238;2023-04-15T10:34:21;98620.72;;;37.40;6.66
79138;BME280;68544;45.566;10.238;2023-04-15T10:36:48;98621.75;;;36.93;7.80
79138;BME280;68544;45.566;10.238;2023-04-15T10:39:37;98625.84;;;37.10;8.35
79138;BME280;68544;45.566;10.238;2023-04-15T10:42:16;98626.66;;;37.21;8.34
79138;BME280;68544;45.566;10.238;2023-04-15T10:44:44;98619.38;;;37.13;7.50
79138;BME280;68544;45.566;10.238;2023-04-15T10:47:15;98621.78;;;37.07;7.39
79138;BME280;68544;45.566;10.238;2023-04-15T10:50:01;98616.56;;;35.94;8.46
79138;BME280;68544;45.566;10.238;2023-04-15T10:52:27;98619.25;;;35.06;8.81
79138;BME280;68544;45.566;10.238;2023-04-15T10:55:12;98615.13;;;35.66;8.10
79138;BME280;68544;45.566;10.238;2023-04-15T10:57:40;98612.75;;;34.43;9.32
79138;BME280;68544;45.566;10.238;2023-04-15T11:00:13;98603.56;;;36.80;7.92
79138;BME280;68544;45.566;10.238;2023-04-15T11:02:45;98600.38;;;35.80;8.83
79138;BME280;68544;45.566;10.238;2023-04-15T11:05:14;98610.47;;;34.26;9.63
79138;BME280;68544;45.566;10.238;2023-04-15T11:12:45;98598.91;;;35.49;8.56
79138;BME280;68544;45.566;10.238;2023-04-15T11:18:07;98591.34;;;35.20;9.04
79138;BME280;68544;45.566;10.238;2023-04-15T11:20:33;98574.97;;;35.26;8.75
79138;BME280;68544;45.566;10.238;2023-04-15T11:22:58;98589.66;;;35.12;8.78
79138;BME280;68544;45.566;10.238;2023-04-15T11:25:28;98603.72;;;32.98;10.28
79138;BME280;68544;45.566;10.238;2023-04-15T11:27:54;98589.00;;;33.42;10.02
79138;BME280;68544;45.566;10.238;2023-04-15T11:30:24;98588.56;;;34.61;8.92
79138;BME280;68544;45.566;10.238;2023-04-15T11:32:56;98578.56;;;34.07;9.06
79138;BME280;68544;45.566;10.238;2023-04-15T11:35:22;98583.06;;;34.42;8.55
79138;BME280;68544;45.566;10.238;2023-04-15T11:37:48;98580.97;;;34.91;8.59
79138;BME280;68544;45.566;10.238;2023-04-15T11:40:15;98580.34;;;34.75;8.93
79138;BME280;68544;45.566;10.238;2023-04-15T11:42:43;98576.56;;;33.85;9.16
79138;BME280;68544;45.566;10.238;2023-04-15T11:45:09;98579.50;;;33.92;8.77
79138;BME280;68544;45.566;10.238;2023-04-15T11:47:36;98578.63;;;33.43;9.62
79138;BME280;68544;45.566;10.238;2023-04-15T11:50:20;98587.94;;;33.09;9.93
79138;BME280;68544;45.566;10.238;2023-04-15T11:52:57;98591.19;;;32.03;9.61
79138;BME280;68544;45.566;10.238;2023-04-15T11:55:23;98587.06;;;31.38;10.83
79138;BME280;68544;45.566;10.238;2023-04-15T11:58:10;98579.22;;;30.45;11.33
79138;BME280;68544;45.566;10.238;2023-04-15T12:00:36;98594.06;;;29.52;12.46
79138;BME280;68544;45.566;10.238;2023-04-15T12:06:08;98595.97;;;28.54;13.20
79138;BME280;68544;45.566;10.238;2023-04-15T12:13:53;98604.34;;;26.94;15.75
79138;BME280;68544;45.566;10.238;2023-04-15T12:16:20;98593.69;;;26.19;16.37
79138;BME280;68544;45.566;10.238;2023-04-15T12:18:46;98594.69;;;26.40;15.70
79138;BME280;68544;45.566;10.238;2023-04-15T12:21:14;98592.47;;;25.86;16.82
79138;BME280;68544;45.566;10.238;2023-04-15T12:23:51;98597.59;;;25.70;17.61
79138;BME280;68544;45.566;10.238;2023-04-15T12:26:27;98592.72;;;26.15;17.16
79138;BME280;68544;45.566;10.238;2023-04-15T12:29:03;98589.72;;;25.95;17.40
79138;BME280;68544;45.566;10.238;2023-04-15T12:31:29;98586.72;;;25.74;17.33
79138;BME280;68544;45.566;10.238;2023-04-15T12:33:55;98598.88;;;25.64;17.77
79138;BME280;68544;45.566;10.238;2023-04-15T12:36:21;98596.63;;;25.36;18.32
79138;BME280;68544;45.566;10.238;2023-04-15T12:38:47;98595.97;;;25.39;18.55
79138;BME280;68544;45.566;10.238;2023-04-15T12:41:12;98603.22;;;24.95;18.93
79138;BME280;68544;45.566;10.238;2023-04-15T12:43:37;98602.03;;;24.88;19.27
79138;BME280;68544;45.566;10.238;2023-04-15T12:46:02;98608.72;;;24.95;18.86
79138;BME280;68544;45.566;10.238;2023-04-15T12:48:28;98599.38;;;24.83;19.34
79138;BME280;68544;45.566;10.238;2023-04-15T12:50:54;98597.66;;;24.51;20.18
79138;BME280;68544;45.566;10.238;2023-04-15T12:53:19;98598.31;;;24.92;19.72
79138;BME280;68544;45.566;10.238;2023-04-15T12:55:44;98598.13;;;24.31;20.85
79138;BME280;68544;45.566;10.238;2023-04-15T12:58:10;98606.25;;;23.73;20.97
79138;BME280;68544;45.566;10.238;2023-04-15T13:00:36;98604.31;;;23.74;21.44
79138;BME280;68544;45.566;10.238;2023-04-15T13:03:01;98611.03;;;24.22;21.05
79138;BME280;68544;45.566;10.238;2023-04-15T13:05:27;98606.34;;;23.82;20.99